Time;durP1;ratioP1;P1;durP2;ratioP2;P2;SDS_P1;SDS_P2;PMS_P1;PMS_P2;Temp;Humidity;BMP_temperature;BMP_pressure;BME280_temperature;BME280_humidity;BME280_pressure;Samples;Min_cycle;Max_cycle;Signal;HPM_P1;HPM_P2
2023/02/06 00:01:18;;;;;;;22.58;3.90;;;3.20;99.90;;;;;;5043977;28;20045;-63
2023/02/06 00:03:44;;;;;;;20.13;3.83;;;3.20;99.90;;;;;;5067018;28;20037;-63
2023/02/06 00:06:09;;;;;;;25.25;4.50;;;3.20;99.90;;;;;;5061298;28;20384;-61
2023/02/06 00:08:35;;;;;;;20.50;4.25;;;3.10;99.90;;;;;;5065235;28;20490;-61
2023/02/06 00:11:06;;;;;;;24.73;3.83;;;3.10;99.90;;;;;;5049217;28;20055;-61
2023/02/06 00:13:33;;;;;;;27.40;4.45;;;3.10;99.90;;;;;;5039076;28;20049;-61
2023/02/06 00:15:59;;;;;;;18.95;4.32;;;3.10;99.90;;;;;;5050027;28;20044;-62
2023/02/06 00:18:24;;;;;;;18.83;4.20;;;3.10;99.90;;;;;;5065336;28;20091;-61
2023/02/06 00:20:50;;;;;;;20.55;4.13;;;3.10;99.90;;;;;;5044645;28;20868;-64
2023/02/06 00:23:16;;;;;;;31.63;4.20;;;3.00;99.90;;;;;;5050417;28;20502;-62
2023/02/06 00:25:41;;;;;;;24.67;4.65;;;3.00;99.90;;;;;;5058833;28;20032;-61
2023/02/06 00:28:07;;;;;;;20.02;4.20;;;3.10;99.90;;;;;;5055188;28;20044;-62
2023/02/06 00:30:32;;;;;;;21.77;4.18;;;3.10;99.90;;;;;;5071364;28;20036;-63
2023/02/06 00:32:58;;;;;;;18.27;3.92;;;3.10;99.90;;;;;;5050203;28;20052;-61
2023/02/06 00:35:24;;;;;;;25.10;4.30;;;3.10;99.90;;;;;;5064036;28;20028;-62
2023/02/06 00:37:49;;;;;;;21.52;3.90;;;3.20;99.90;;;;;;5072319;28;20483;-61
2023/02/06 00:40:16;;;;;;;13.57;3.60;;;3.20;99.90;;;;;;5076865;28;20039;-61
2023/02/06 00:42:41;;;;;;;13.05;3.47;;;3.20;99.90;;;;;;5087436;28;20032;-61
2023/02/06 00:45:08;;;;;;;15.38;3.35;;;3.20;99.90;;;;;;5055544;28;20123;-63
2023/02/06 00:47:34;;;;;;;16.92;3.63;;;3.10;99.90;;;;;;5065874;28;20555;-61
2023/02/06 00:50:00;;;;;;;15.43;3.47;;;3.10;99.90;;;;;;5042241;28;20043;-61
2023/02/06 00:52:26;;;;;;;13.90;3.10;;;3.10;99.90;;;;;;5046561;28;20036;-61
2023/02/06 00:54:51;;;;;;;17.45;3.22;;;3.10;99.90;;;;;;5047845;28;20431;-62
2023/02/06 00:57:17;;;;;;;10.38;3.00;;;3.10;99.90;;;;;;5071555;28;20509;-64
2023/02/06 00:59:43;;;;;;;10.45;2.72;;;3.10;99.90;;;;;;5074501;28;20140;-62
2023/02/06 01:02:09;;;;;;;7.55;2.42;;;3.10;99.90;;;;;;5071310;28;20109;-62
2023/02/06 01:04:34;;;;;;;12.27;2.92;;;3.10;99.90;;;;;;5053734;28;20040;-61
2023/02/06 01:07:00;;;;;;;12.65;2.95;;;3.10;99.90;;;;;;5066193;28;20045;-61
2023/02/06 01:09:26;;;;;;;15.80;3.17;;;3.10;99.90;;;;;;5064785;28;20371;-62
2023/02/06 01:11:51;;;;;;;20.05;3.63;;;3.10;99.90;;;;;;5046379;28;20386;-61
2023/02/06 01:14:17;;;;;;;18.75;4.43;;;3.10;99.90;;;;;;5042819;28;20070;-61
2023/02/06 01:16:43;;;;;;;13.70;3.58;;;3.10;99.90;;;;;;5044783;28;20492;-61
2023/02/06 01:19:08;;;;;;;17.20;3.65;;;3.20;99.90;;;;;;5065506;28;20047;-62
2023/02/06 01:21:35;;;;;;;16.52;3.47;;;3.20;99.90;;;;;;5060799;28;20071;-62
2023/02/06 01:24:00;;;;;;;17.63;2.88;;;3.20;99.90;;;;;;5043941;28;20067;-62
2023/02/06 01:26:26;;;;;;;16.63;2.75;;;3.20;99.90;;;;;;5047048;28;20064;-62
2023/02/06 01:28:53;;;;;;;13.95;3.17;;;3.20;99.90;;;;;;5071982;28;20558;-64
2023/02/06 01:31:20;;;;;;;17.60;3.55;;;3.20;99.90;;;;;;5042453;28;20094;-62
2023/02/06 01:33:47;;;;;;;15.30;3.50;;;3.20;99.90;;;;;;5046387;28;20048;-63
2023/02/06 01:36:14;;;;;;;18.27;3.80;;;3.20;99.90;;;;;;5043524;28;20041;-61
2023/02/06 01:38:40;;;;;;;18.50;3.03;;;3.20;99.90;;;;;;5039271;28;20037;-61
2023/02/06 01:41:07;;;;;;;16.95;3.10;;;3.30;99.90;;;;;;5061916;28;20049;-62
2023/02/06 01:43:36;;;;;;;26.05;3.28;;;3.30;99.90;;;;;;5066428;28;20028;-62
2023/02/06 01:46:02;;;;;;;15.95;3.80;;;3.30;99.90;;;;;;5081776;28;20040;-62
2023/02/06 01:48:52;;;;;;;16.13;3.45;;;3.30;99.90;;;;;;5074182;28;20028;-62
2023/02/06 01:51:22;;;;;;;19.63;2.95;;;3.20;99.90;;;;;;5073409;28;20112;-62
2023/02/06 01:53:51;;;;;;;14.48;3.30;;;3.20;99.90;;;;;;5073253;28;20120;-63
2023/02/06 01:56:19;;;;;;;22.35;3.35;;;3.20;99.90;;;;;;5048827;28;20109;-62
2023/02/06 01:58:50;;;;;;;20.45;3.35;;;3.20;99.90;;;;;;5052841;28;20249;-62
2023/02/06 02:01:17;;;;;;;17.50;3.50;;;3.20;99.90;;;;;;5077976;28;20478;-62
2023/02/06 02:03:45;;;;;;;20.05;3.95;;;3.30;99.90;;;;;;5047562;28;20037;-61
2023/02/06 02:06:15;;;;;;;19.88;4.40;;;3.30;99.90;;;;;;5052307;28;20670;-63
2023/02/06 02:08:44;;;;;;;25.15;4.22;;;3.30;99.90;;;;;;5070301;28;20044;-62
2023/02/06 02:11:15;;;;;;;20.08;3.88;;;3.30;99.90;;;;;;5070497;28;20040;-62
2023/02/06 02:13:41;;;;;;;19.38;3.60;;;3.30;99.90;;;;;;5067056;28;20040;-63
2023/02/06 02:16:39;;;;;;;19.02;3.67;;;3.30;99.90;;;;;;5044176;28;20041;-62
2023/02/06 02:19:40;;;;;;;17.58;3.30;;;3.30;99.90;;;;;;5041756;28;20414;-62
2023/02/06 02:22:42;;;;;;;17.88;3.53;;;3.30;99.90;;;;;;5045779;28;20127;-64
2023/02/06 02:25:16;;;;;;;26.42;4.75;;;3.30;99.90;;;;;;5043252;28;20473;-64
2023/02/06 02:28:12;;;;;;;18.70;3.45;;;3.30;99.90;;;;;;5040752;28;20044;-62
2023/02/06 02:30:44;;;;;;;26.13;4.03;;;3.30;99.90;;;;;;5068967;28;20205;-63
2023/02/06 02:33:48;;;;;;;20.02;3.60;;;3.40;99.90;;;;;;5068063;28;20036;-61
2023/02/06 02:36:17;;;;;;;22.45;4.88;;;3.40;99.90;;;;;;5069713;28;20044;-62
2023/02/06 02:39:01;;;;;;;25.90;4.20;;;3.40;99.90;;;;;;5070791;28;20036;-63
2023/02/06 02:41:49;;;;;;;23.92;3.90;;;3.40;99.90;;;;;;5053179;28;20043;-63
2023/02/06 02:44:36;;;;;;;25.38;3.88;;;3.50;99.90;;;;;;5046785;28;20456;-61
2023/02/06 02:47:06;;;;;;;22.60;4.40;;;3.50;99.90;;;;;;5055051;28;20121;-62
2023/02/06 02:49:35;;;;;;;19.75;4.55;;;3.50;99.90;;;;;;5068525;28;20375;-61
2023/02/06 02:52:02;;;;;;;22.33;4.45;;;3.50;99.90;;;;;;5051773;28;20048;-62
2023/02/06 02:54:27;;;;;;;21.27;3.55;;;3.50;99.90;;;;;;5073673;28;20040;-63
2023/02/06 02:56:59;;;;;;;20.30;4.00;;;3.50;99.90;;;;;;5070025;28;20063;-63
2023/02/06 02:59:34;;;;;;;17.97;3.40;;;3.50;99.90;;;;;;5067245;28;20033;-64
2023/02/06 03:02:04;;;;;;;25.60;3.70;;;3.50;99.90;;;;;;5066245;28;20051;-62
2023/02/06 03:04:38;;;;;;;19.20;4.05;;;3.40;99.90;;;;;;5061491;28;20119;-62
2023/02/06 03:07:16;;;;;;;21.40;4.60;;;3.40;99.90;;;;;;5062053;28;20045;-62
2023/02/06 03:10:11;;;;;;;17.48;4.22;;;3.40;99.90;;;;;;5043361;28;20487;-62
2023/02/06 03:12:53;;;;;;;13.45;2.55;;;3.30;99.90;;;;;;5054557;28;20072;-62
2023/02/06 03:15:51;;;;;;;22.90;4.05;;;3.30;99.90;;;;;;5067096;28;20072;-62
2023/02/06 03:18:23;;;;;;;16.17;3.85;;;3.20;99.90;;;;;;5072031;28;20111;-62
2023/02/06 03:20:50;;;;;;;;;;;3.20;99.90;;;;;;5070411;28;20051;-62
2023/02/06 03:23:21;;;;;;;14.18;3.17;;;3.10;99.90;;;;;;5035837;28;19970;-63
2023/02/06 03:25:51;;;;;;;14.85;3.20;;;3.10;99.90;;;;;;5044343;28;20048;-63
2023/02/06 03:28:22;;;;;;;17.85;3.40;;;3.00;99.90;;;;;;5064708;28;20450;-62
2023/02/06 03:30:52;;;;;;;23.40;3.85;;;3.00;99.90;;;;;;5066089;28;20102;-63
2023/02/06 03:33:25;;;;;;;18.77;3.20;;;3.00;99.90;;;;;;5062959;28;20040;-62
2023/02/06 03:35:51;;;;;;;18.52;3.45;;;3.00;99.90;;;;;;5059076;28;20095;-62
2023/02/06 03:38:17;;;;;;;17.48;4.03;;;3.00;99.90;;;;;;5043445;28;20524;-61
2023/02/06 03:40:47;;;;;;;22.70;3.72;;;3.00;99.90;;;;;;5069341;28;20045;-64
2023/02/06 03:43:17;;;;;;;14.63;3.55;;;3.00;99.90;;;;;;5053545;28;20479;-61
2023/02/06 03:45:47;;;;;;;14.68;3.28;;;3.00;99.90;;;;;;5082243;28;20042;-61
2023/02/06 03:48:38;;;;;;;22.63;3.80;;;3.50;99.90;;;;;;5040582;28;20392;-61
2023/02/06 03:51:10;;;;;;;19.58;4.03;;;3.00;99.90;;;;;;5035683;28;20099;-62
2023/02/06 03:53:37;;;;;;;18.25;4.05;;;3.00;99.90;;;;;;5057677;28;20044;-63
2023/02/06 03:56:11;;;;;;;16.23;3.13;;;3.00;99.90;;;;;;5047895;28;20105;-60
2023/02/06 03:58:37;;;;;;;18.63;3.90;;;3.00;99.90;;;;;;5056036;28;20048;-61
2023/02/06 04:01:05;;;;;;;13.80;3.08;;;3.00;99.90;;;;;;5065846;28;20033;-62
2023/02/06 04:03:32;;;;;;;20.10;3.80;;;3.00;99.90;;;;;;5074168;28;20477;-62
2023/02/06 04:05:59;;;;;;;19.02;4.05;;;2.90;99.90;;;;;;5064734;28;20084;-62
2023/02/06 04:08:24;;;;;;;19.58;3.60;;;3.00;99.90;;;;;;5072683;28;20045;-63
2023/02/06 04:10:50;;;;;;;17.17;3.40;;;3.00;99.90;;;;;;5062760;28;20040;-63
2023/02/06 04:13:16;;;;;;;19.58;3.50;;;3.00;99.90;;;;;;5058769;28;20036;-63
2023/02/06 04:15:41;;;;;;;19.48;3.40;;;3.00;99.90;;;;;;5064788;28;20498;-62
2023/02/06 04:18:07;;;;;;;16.15;3.35;;;3.00;99.90;;;;;;5072609;28;20037;-62
2023/02/06 04:20:33;;;;;;;14.65;2.88;;;3.00;99.90;;;;;;5065066;28;20041;-63
2023/02/06 04:22:59;;;;;;;10.25;2.85;;;3.00;99.90;;;;;;5045850;28;20032;-63
2023/02/06 04:25:25;;;;;;;14.50;3.03;;;3.00;99.90;;;;;;5069118;28;20506;-64
2023/02/06 04:27:51;;;;;;;13.48;2.90;;;3.00;99.90;;;;;;5078243;28;20371;-64
2023/02/06 04:30:17;;;;;;;9.77;2.92;;;3.00;99.90;;;;;;5041001;28;20047;-64
2023/02/06 04:32:42;;;;;;;7.85;2.67;;;3.00;99.90;;;;;;5070308;28;20429;-64
2023/02/06 04:35:08;;;;;;;5.65;2.03;;;3.00;99.90;;;;;;5069444;28;20090;-63
2023/02/06 04:37:34;;;;;;;7.97;2.30;;;3.00;99.90;;;;;;5047947;28;20029;-63
2023/02/06 04:40:00;;;;;;;6.85;2.30;;;3.00;99.90;;;;;;5065313;28;20044;-63
2023/02/06 04:42:26;;;;;;;7.35;2.03;;;3.00;99.90;;;;;;5068365;28;20041;-62
2023/02/06 04:44:51;;;;;;;4.97;1.77;;;3.00;99.90;;;;;;5064389;28;20041;-66
2023/02/06 04:47:17;;;;;;;6.35;2.17;;;3.00;99.90;;;;;;5055881;28;20037;-61
2023/02/06 04:49:43;;;;;;;6.45;2.13;;;3.00;99.90;;;;;;5065954;28;20044;-61
2023/02/06 04:52:08;;;;;;;6.90;1.90;;;3.00;99.90;;;;;;5053716;28;20486;-62
2023/02/06 04:54:34;;;;;;;12.20;2.17;;;3.00;99.90;;;;;;5068601;28;20028;-64
2023/02/06 04:56:59;;;;;;;9.73;2.67;;;3.00;99.90;;;;;;5081051;28;20032;-61
2023/02/06 04:59:25;;;;;;;11.63;2.35;;;3.00;99.90;;;;;;5063276;28;20447;-61
2023/02/06 05:01:51;;;;;;;10.05;2.63;;;3.00;99.90;;;;;;5061365;28;20045;-64
2023/02/06 05:04:16;;;;;;;11.20;2.88;;;3.00;99.90;;;;;;5070242;28;20170;-63
2023/02/06 05:06:42;;;;;;;10.77;2.55;;;3.00;99.90;;;;;;5054380;28;20531;-62
2023/02/06 05:09:08;;;;;;;11.73;2.50;;;3.00;99.90;;;;;;5067907;28;20173;-63
2023/02/06 05:11:34;;;;;;;13.93;3.20;;;3.00;99.90;;;;;;5045969;28;20036;-64
2023/02/06 05:14:00;;;;;;;15.35;3.15;;;3.00;99.90;;;;;;5053335;28;20037;-63
2023/02/06 05:16:26;;;;;;;15.82;3.08;;;3.80;99.90;;;;;;5056317;28;20037;-64
2023/02/06 05:18:53;;;;;;;17.35;2.88;;;3.00;99.90;;;;;;5050879;28;20032;-64
2023/02/06 05:21:19;;;;;;;18.83;3.75;;;3.00;99.90;;;;;;5060694;28;20048;-63
2023/02/06 05:23:44;;;;;;;17.98;3.30;;;3.00;99.90;;;;;;5049827;28;20456;-63
2023/02/06 05:26:10;;;;;;;19.73;3.75;;;3.00;99.90;;;;;;5050671;28;20032;-63
2023/02/06 05:28:35;;;;;;;20.88;3.67;;;3.00;99.90;;;;;;5070695;28;20456;-63
2023/02/06 05:31:02;;;;;;;19.70;3.80;;;3.00;99.90;;;;;;5071180;28;20082;-63
2023/02/06 05:33:28;;;;;;;16.27;3.72;;;3.10;99.90;;;;;;5053325;28;20040;-63
2023/02/06 05:35:59;;;;;;;16.85;3.15;;;3.10;99.90;;;;;;5070382;28;20091;-63
2023/02/06 05:38:25;;;;;;;16.77;2.97;;;3.10;99.90;;;;;;5053782;28;20083;-62
2023/02/06 05:40:51;;;;;;;14.68;3.53;;;3.10;99.90;;;;;;5042701;28;20296;-64
2023/02/06 05:43:16;;;;;;;10.68;2.88;;;3.10;99.90;;;;;;5060548;28;20367;-65
2023/02/06 05:45:42;;;;;;;12.10;2.90;;;3.10;99.90;;;;;;5052251;28;20044;-64
2023/02/06 05:48:07;;;;;;;13.57;3.13;;;3.10;99.90;;;;;;5068882;28;20047;-63
2023/02/06 05:50:33;;;;;;;14.88;2.90;;;3.10;99.90;;;;;;5058696;28;20040;-64
2023/02/06 05:52:59;;;;;;;21.27;3.80;;;3.10;99.90;;;;;;5050617;28;20123;-64
2023/02/06 05:55:24;;;;;;;21.05;3.65;;;3.10;99.90;;;;;;5061569;28;20502;-64
2023/02/06 05:57:50;;;;;;;19.00;3.17;;;3.10;99.90;;;;;;5061393;28;20036;-64
2023/02/06 06:00:16;;;;;;;14.98;3.08;;;3.10;99.90;;;;;;5042184;28;20487;-62
2023/02/06 06:02:41;;;;;;;20.40;3.25;;;3.10;99.90;;;;;;5056739;28;20056;-64
2023/02/06 06:05:07;;;;;;;18.60;3.40;;;3.20;99.90;;;;;;5063325;28;20067;-64
2023/02/06 06:07:33;;;;;;;23.48;3.40;;;3.10;99.90;;;;;;5051248;28;20119;-63
2023/02/06 06:09:58;;;;;;;14.68;3.75;;;3.20;99.90;;;;;;5069058;28;20076;-62
2023/02/06 06:12:24;;;;;;;16.23;3.00;;;3.20;99.90;;;;;;5062999;28;20100;-62
2023/02/06 06:14:49;;;;;;;16.33;3.10;;;3.20;99.90;;;;;;5069095;28;20067;-64
2023/02/06 06:17:15;;;;;;;14.05;3.45;;;3.20;99.90;;;;;;5062536;28;20115;-64
2023/02/06 06:19:41;;;;;;;14.25;2.95;;;3.20;99.90;;;;;;5061205;28;20041;-63
2023/02/06 06:22:06;;;;;;;14.25;3.03;;;3.20;99.90;;;;;;5068637;28;20060;-62
2023/02/06 06:24:32;;;;;;;17.17;3.55;;;3.20;99.90;;;;;;5064259;28;20057;-64
2023/02/06 06:26:58;;;;;;;17.88;2.90;;;3.20;99.90;;;;;;5041748;28;20257;-63
2023/02/06 06:29:25;;;;;;;18.83;3.13;;;3.20;99.90;;;;;;5044138;28;20041;-63
2023/02/06 06:31:50;;;;;;;12.93;2.97;;;3.20;99.90;;;;;;5057931;28;20037;-61
2023/02/06 06:34:16;;;;;;;11.15;2.47;;;3.10;99.90;;;;;;5071006;28;20054;-64
2023/02/06 06:36:42;;;;;;;13.30;2.92;;;3.20;99.90;;;;;;5068401;28;20048;-64
2023/02/06 06:39:07;;;;;;;14.95;2.90;;;3.20;99.90;;;;;;5062382;28;20033;-64
2023/02/06 06:41:33;;;;;;;18.48;3.08;;;3.10;99.90;;;;;;5057064;28;20434;-63
2023/02/06 06:43:59;;;;;;;18.48;3.10;;;3.10;99.90;;;;;;5042308;28;20097;-62
2023/02/06 06:46:25;;;;;;;16.48;2.88;;;3.10;99.90;;;;;;5052864;28;20101;-64
2023/02/06 06:48:51;;;;;;;19.80;3.22;;;3.10;99.90;;;;;;5070565;28;20308;-64
2023/02/06 06:51:16;;;;;;;19.08;3.13;;;3.10;99.90;;;;;;5040576;28;20124;-64
2023/02/06 06:53:42;;;;;;;14.15;2.70;;;3.10;99.90;;;;;;5065353;28;20040;-62
2023/02/06 06:56:12;;;;;;;21.88;3.65;;;3.10;99.90;;;;;;5049824;28;20041;-64
2023/02/06 06:58:38;;;;;;;14.45;3.35;;;3.10;99.90;;;;;;5065320;28;20041;-63
2023/02/06 07:01:04;;;;;;;16.67;2.75;;;3.20;99.90;;;;;;5062106;28;20379;-61
2023/02/06 07:03:29;;;;;;;15.02;3.33;;;3.10;99.90;;;;;;5068395;28;20035;-61
2023/02/06 07:05:55;;;;;;;15.88;3.60;;;3.20;99.90;;;;;;5066142;28;20495;-64
2023/02/06 07:08:21;;;;;;;22.42;3.58;;;3.20;99.90;;;;;;5050141;28;20040;-65
2023/02/06 07:10:46;;;;;;;16.52;3.40;;;3.20;99.90;;;;;;5043423;28;20410;-64
2023/02/06 07:13:14;;;;;;;15.65;3.60;;;3.30;99.90;;;;;;5066975;28;20410;-63
2023/02/06 07:15:40;;;;;;;19.42;3.60;;;3.30;99.90;;;;;;5049705;28;20476;-62
2023/02/06 07:18:06;;;;;;;16.63;3.95;;;3.30;99.90;;;;;;5068125;28;20078;-64
2023/02/06 07:20:31;;;;;;;28.38;3.85;;;3.30;99.90;;;;;;5038324;28;20415;-61
2023/02/06 07:22:57;;;;;;;23.63;4.88;;;3.30;99.90;;;;;;5045904;28;20055;-62
2023/02/06 07:25:22;;;;;;;18.23;3.65;;;3.40;99.90;;;;;;5059818;28;20059;-62
2023/02/06 07:27:48;;;;;;;21.55;3.85;;;3.40;99.90;;;;;;5064819;28;20040;-66
2023/02/06 07:30:14;;;;;;;19.30;3.90;;;3.40;99.90;;;;;;5050834;28;20036;-61
2023/02/06 07:32:40;;;;;;;18.58;3.25;;;3.30;99.90;;;;;;5050777;28;20606;-61
2023/02/06 07:35:06;;;;;;;18.02;3.58;;;3.40;99.90;;;;;;5050190;28;20107;-68
2023/02/06 07:37:32;;;;;;;18.27;3.63;;;3.40;99.90;;;;;;5050614;28;20037;-61
2023/02/06 07:39:58;;;;;;;16.45;3.55;;;3.40;99.90;;;;;;5067535;28;20041;-60
2023/02/06 07:42:23;;;;;;;23.52;3.13;;;3.40;99.90;;;;;;5050914;28;20043;-61
2023/02/06 07:44:49;;;;;;;16.02;3.03;;;3.40;99.90;;;;;;5068885;28;20076;-62
2023/02/06 07:47:15;;;;;;;15.45;3.33;;;3.40;99.90;;;;;;5049890;28;20032;-63
2023/02/06 07:49:41;;;;;;;14.50;3.22;;;3.40;99.90;;;;;;5066864;28;20494;-65
2023/02/06 07:52:06;;;;;;;15.57;3.28;;;3.40;99.90;;;;;;5048843;28;20050;-61
2023/02/06 07:54:32;;;;;;;20.55;3.58;;;3.40;99.90;;;;;;5068060;28;20502;-62
2023/02/06 07:56:58;;;;;;;17.30;4.22;;;3.40;99.90;;;;;;5067176;28;20056;-62
2023/02/06 07:59:23;;;;;;;20.33;3.83;;;3.40;99.90;;;;;;5045006;28;20033;-62
2023/02/06 08:01:52;;;;;;;16.50;3.90;;;3.50;99.90;;;;;;5050170;28;20052;-65
2023/02/06 08:04:18;;;;;;;16.60;3.50;;;3.70;99.90;;;;;;5035888;28;20103;-61
2023/02/06 08:06:44;;;;;;;21.70;4.05;;;3.50;99.90;;;;;;5068389;28;20455;-64
2023/02/06 08:09:16;;;;;;;20.02;3.90;;;3.50;99.90;;;;;;5056795;28;20044;-65
2023/02/06 08:11:42;;;;;;;17.42;4.10;;;3.50;99.90;;;;;;5062257;28;20101;-63
2023/02/06 08:14:08;;;;;;;19.38;4.18;;;3.60;99.90;;;;;;5043364;28;20116;-64
2023/02/06 08:16:33;;;;;;;19.38;4.10;;;3.60;99.90;;;;;;5053369;28;20155;-66
2023/02/06 08:18:59;;;;;;;18.30;4.10;;;3.60;99.90;;;;;;5047609;28;20125;-60
2023/02/06 08:21:24;;;;;;;17.40;4.25;;;3.70;99.90;;;;;;5055349;28;20036;-63
2023/02/06 08:23:58;;;;;;;22.95;4.22;;;3.70;99.90;;;;;;5048307;28;20491;-63
2023/02/06 08:26:26;;;;;;;19.25;4.72;;;3.80;99.90;;;;;;5063265;28;20041;-63
2023/02/06 08:28:52;;;;;;;17.35;4.18;;;3.80;99.90;;;;;;5066442;28;20503;-63
2023/02/06 08:31:21;;;;;;;21.15;4.97;;;3.80;99.90;;;;;;5067178;28;20132;-64
2023/02/06 08:33:47;;;;;;;23.83;4.60;;;3.90;99.90;;;;;;5055124;28;20036;-63
2023/02/06 08:36:14;;;;;;;19.17;3.95;;;4.00;99.90;;;;;;5041635;28;20421;-62
2023/02/06 08:38:39;;;;;;;17.20;3.97;;;4.00;99.90;;;;;;5065234;28;20037;-63
2023/02/06 08:41:17;;;;;;;22.83;4.55;;;4.10;99.90;;;;;;5047093;28;20056;-63
2023/02/06 08:43:45;;;;;;;20.75;4.15;;;4.10;99.90;;;;;;5066310;28;20036;-63
2023/02/06 08:46:10;;;;;;;21.27;4.35;;;4.20;99.90;;;;;;5047219;28;20036;-61
2023/02/06 08:48:36;;;;;;;21.90;3.92;;;4.20;99.90;;;;;;5071299;28;20048;-63
2023/02/06 08:51:04;;;;;;;22.83;3.92;;;4.30;99.90;;;;;;5076779;28;20040;-63
2023/02/06 08:53:29;;;;;;;16.17;3.70;;;4.30;99.90;;;;;;5068148;28;20036;-63
2023/02/06 08:56:00;;;;;;;18.75;4.10;;;4.40;99.90;;;;;;5063237;28;20040;-62
2023/02/06 08:58:26;;;;;;;27.90;3.70;;;4.40;99.90;;;;;;5066163;28;20036;-63
2023/02/06 09:00:52;;;;;;;20.85;3.65;;;4.50;99.90;;;;;;5064836;28;20128;-63
2023/02/06 09:03:19;;;;;;;18.42;3.50;;;4.50;99.90;;;;;;5069590;28;20036;-63
2023/02/06 09:05:45;;;;;;;25.08;3.55;;;4.60;99.90;;;;;;5071977;28;20123;-63
2023/02/06 09:08:11;;;;;;;20.30;3.72;;;4.60;99.90;;;;;;5066245;28;20136;-62
2023/02/06 09:10:36;;;;;;;15.35;3.60;;;4.70;99.90;;;;;;5054512;28;20106;-63
2023/02/06 09:13:02;;;;;;;20.50;3.33;;;4.80;99.90;;;;;;5070300;28;20025;-63
2023/02/06 09:15:28;;;;;;;15.90;3.35;;;4.80;99.90;;;;;;5055198;28;20040;-64
2023/02/06 09:17:54;;;;;;;19.98;3.58;;;4.90;99.90;;;;;;5068443;28;20033;-62
2023/02/06 09:20:20;;;;;;;26.60;4.20;;;4.90;99.90;;;;;;5057605;28;20043;-63
2023/02/06 09:22:45;;;;;;;18.92;4.00;;;5.00;99.90;;;;;;5061003;28;20033;-62
2023/02/06 09:25:11;;;;;;;19.20;3.90;;;5.10;99.90;;;;;;5063290;28;20479;-63
2023/02/06 09:27:37;;;;;;;20.67;4.13;;;5.10;99.90;;;;;;5048388;28;20090;-64
2023/02/06 09:30:03;;;;;;;23.83;4.70;;;5.20;99.90;;;;;;5051074;28;20048;-62
2023/02/06 09:32:29;;;;;;;30.05;4.72;;;5.30;99.90;;;;;;5066442;28;20094;-63
2023/02/06 09:34:54;;;;;;;22.67;4.00;;;5.30;99.90;;;;;;5048988;28;20040;-63
2023/02/06 09:37:20;;;;;;;17.65;3.83;;;5.30;99.90;;;;;;5049555;28;20461;-63
2023/02/06 09:39:46;;;;;;;20.88;4.68;;;5.40;99.90;;;;;;5045857;28;20039;-64
2023/02/06 09:42:18;;;;;;;20.73;4.38;;;5.50;99.90;;;;;;5052229;28;20638;-64
2023/02/06 09:45:01;;;;;;;20.88;4.05;;;5.50;99.90;;;;;;5066199;28;20553;-63
2023/02/06 09:47:32;;;;;;;;;;;5.50;99.90;;;;;;5039565;28;20040;-64
2023/02/06 09:50:29;;;;;;;23.73;4.78;;;5.50;99.90;;;;;;5057208;28;20379;-64
2023/02/06 09:53:12;;;;;;;27.50;4.53;;;5.60;99.90;;;;;;5041816;28;20056;-64
2023/02/06 09:55:39;;;;;;;29.50;4.22;;;5.60;99.90;;;;;;5059452;28;20398;-64
2023/02/06 09:58:11;;;;;;;28.77;5.07;;;5.70;99.90;;;;;;5049894;28;20067;-64
2023/02/06 10:00:58;;;;;;;24.70;4.70;;;5.70;99.90;;;;;;5061270;28;20044;-64
2023/02/06 10:03:24;;;;;;;16.02;3.58;;;5.80;99.90;;;;;;5044191;28;20039;-64
2023/02/06 10:05:59;;;;;;;21.05;4.68;;;5.80;99.90;;;;;;5071296;28;20115;-64
2023/02/06 10:08:30;;;;;;;24.50;5.00;;;5.90;99.90;;;;;;5063623;28;20488;-63
2023/02/06 10:10:59;;;;;;;26.20;5.13;;;6.00;99.90;;;;;;5045182;28;20044;-63
2023/02/06 10:13:31;;;;;;;17.10;4.10;;;6.00;99.90;;;;;;5056638;28;20086;-62
2023/02/06 10:16:04;;;;;;;25.00;7.57;;;6.10;99.90;;;;;;5067785;28;20072;-63
2023/02/06 10:18:40;;;;;;;;;;;6.10;99.90;;;;;;5035853;28;20481;-63
2023/02/06 10:21:18;;;;;;;24.55;6.07;;;6.20;99.90;;;;;;5042273;28;19956;-63
2023/02/06 10:24:06;;;;;;;27.08;6.75;;;6.20;99.90;;;;;;5047496;28;20434;-63
2023/02/06 10:26:37;;;;;;;29.02;6.30;;;6.30;99.90;;;;;;5049891;28;20119;-64
2023/02/06 10:29:04;;;;;;;28.42;5.22;;;6.30;99.90;;;;;;5067043;28;20062;-64
2023/02/06 10:31:54;;;;;;;28.00;5.40;;;6.30;99.90;;;;;;5045670;28;20495;-62
2023/02/06 10:34:46;;;;;;;26.48;4.95;;;6.30;99.90;;;;;;5059456;28;20114;-63
2023/02/06 10:38:06;;;;;;;34.93;6.23;;;6.30;99.90;;;;;;5046971;28;20063;-63
2023/02/06 10:40:53;;;;;;;26.95;5.22;;;6.40;99.90;;;;;;5014223;28;20287;-63
2023/02/06 10:43:33;;;;;;;21.27;5.30;;;6.50;99.90;;;;;;5064817;28;20154;-64
2023/02/06 10:46:18;;;;;;;30.35;5.53;;;6.50;99.90;;;;;;5058890;28;20040;-64
2023/02/06 10:49:08;;;;;;;29.65;6.70;;;6.50;99.90;;;;;;5058690;28;20055;-63
2023/02/06 10:51:44;;;;;;;33.40;5.50;;;6.50;99.90;;;;;;5040353;28;20048;-65
2023/02/06 10:54:35;;;;;;;28.95;5.65;;;6.60;99.90;;;;;;5067676;28;20300;-63
2023/02/06 10:57:02;;;;;;;33.95;6.28;;;6.60;99.90;;;;;;5040875;28;20045;-63
2023/02/06 10:59:32;;;;;;;36.15;6.13;;;6.60;99.90;;;;;;5066124;28;20044;-64
2023/02/06 11:02:15;;;;;;;27.38;6.18;;;6.70;99.90;;;;;;5051764;28;20094;-64
2023/02/06 11:04:48;;;;;;;32.95;6.05;;;6.80;99.90;;;;;;5066219;28;20107;-63
2023/02/06 11:07:23;;;;;;;29.88;6.05;;;6.90;99.90;;;;;;5057046;28;20043;-63
2023/02/06 11:09:51;;;;;;;23.17;6.18;;;7.00;99.90;;;;;;5045464;28;20458;-63
2023/02/06 11:12:39;;;;;;;27.23;5.10;;;7.00;99.90;;;;;;5039307;28;20407;-61
2023/02/06 11:15:21;;;;;;;28.27;6.22;;;7.00;99.90;;;;;;5060175;28;20120;-63
2023/02/06 11:17:47;;;;;;;28.15;6.50;;;7.00;99.90;;;;;;5042703;28;20040;-63
2023/02/06 11:20:23;;;;;;;34.85;7.25;;;7.10;99.90;;;;;;5069425;28;20032;-64
2023/02/06 11:22:49;;;;;;;24.15;6.45;;;7.10;99.90;;;;;;5057657;28;20040;-64
2023/02/06 11:25:28;;;;;;;22.52;6.28;;;7.20;99.90;;;;;;5038840;28;20108;-63
2023/02/06 11:27:56;;;;;;;24.95;5.65;;;7.20;99.90;;;;;;5067025;28;20158;-64
2023/02/06 11:30:28;;;;;;;23.40;5.70;;;7.20;99.90;;;;;;5065136;28;20473;-63
2023/02/06 11:33:00;;;;;;;28.85;6.35;;;7.20;99.90;;;;;;5069721;28;20044;-64
2023/02/06 11:35:37;;;;;;;29.65;5.50;;;7.20;99.90;;;;;;5040987;28;20040;-64
2023/02/06 11:38:24;;;;;;;30.50;6.38;;;7.30;99.90;;;;;;5036220;28;20399;-62
2023/02/06 11:41:05;;;;;;;37.35;6.97;;;7.20;99.90;;;;;;5070330;28;20078;-64
2023/02/06 11:43:40;;;;;;;20.42;5.20;;;7.30;99.90;;;;;;5042621;28;20037;-64
2023/02/06 11:46:11;;;;;;;23.00;5.85;;;7.40;99.90;;;;;;5044404;28;20127;-62
2023/02/06 11:48:42;;;;;;;26.83;5.93;;;7.40;99.90;;;;;;5056099;28;20040;-64
2023/02/06 11:51:08;;;;;;;23.20;5.20;;;7.50;99.90;;;;;;5052766;28;20041;-61
2023/02/06 11:53:35;;;;;;;19.08;4.40;;;7.60;99.90;;;;;;5059718;28;20086;-63
2023/02/06 11:56:16;;;;;;;23.92;5.25;;;7.70;99.90;;;;;;5051293;28;20044;-63
2023/02/06 11:58:41;;;;;;;31.45;4.75;;;7.90;99.90;;;;;;5036653;28;20403;-64
2023/02/06 12:01:17;;;;;;;22.33;5.03;;;8.00;99.90;;;;;;5042613;28;20064;-64
2023/02/06 12:03:56;;;;;;;24.27;4.75;;;8.20;99.90;;;;;;5061145;28;20069;-64
2023/02/06 12:06:37;;;;;;;22.95;4.82;;;8.30;99.90;;;;;;5061232;28;20032;-63
2023/02/06 12:12:00;;;;;;;25.40;5.05;;;8.50;99.90;;;;;;5049896;28;20044;-62
2023/02/06 12:14:48;;;;;;;25.65;4.88;;;8.50;99.90;;;;;;5033172;28;20411;-63
2023/02/06 12:17:27;;;;;;;23.50;5.15;;;8.40;99.90;;;;;;5025074;28;20037;-62
2023/02/06 12:20:13;;;;;;;25.13;4.13;;;8.40;99.90;;;;;;5046182;28;20049;-62
2023/02/06 12:22:44;;;;;;;24.00;3.95;;;8.50;99.90;;;;;;5026341;28;20390;-63
2023/02/06 12:25:25;;;;;;;20.10;4.28;;;8.60;99.90;;;;;;5052782;28;20430;-63
2023/02/06 12:27:54;;;;;;;19.83;4.60;;;8.60;99.90;;;;;;5024918;28;20128;-62
2023/02/06 12:30:25;;;;;;;18.25;4.20;;;8.70;99.90;;;;;;5025328;28;20509;-63
2023/02/06 12:33:01;;;;;;;17.92;4.22;;;8.60;99.90;;;;;;5052795;28;20139;-63
2023/02/06 12:35:42;;;;;;;18.42;3.38;;;8.60;99.90;;;;;;5025275;28;20049;-63
2023/02/06 12:38:36;;;;;;;20.17;3.65;;;8.50;99.90;;;;;;5028782;28;20067;-63
2023/02/06 12:41:18;;;;;;;19.88;3.30;;;8.50;99.90;;;;;;4985429;28;20049;-63
2023/02/06 12:43:51;;;;;;;25.20;3.00;;;8.50;99.90;;;;;;5033494;28;20491;-62
2023/02/06 12:46:20;;;;;;;17.30;2.90;;;8.50;99.90;;;;;;5044127;28;20036;-64
2023/02/06 12:48:51;;;;;;;17.67;3.15;;;8.60;99.90;;;;;;5026600;28;20037;-62
2023/02/06 12:51:44;;;;;;;17.35;3.30;;;8.60;99.90;;;;;;5046597;28;20041;-62
2023/02/06 12:54:21;;;;;;;16.42;3.35;;;8.60;99.90;;;;;;5030283;28;20045;-63
2023/02/06 12:56:59;;;;;;;12.68;2.90;;;8.60;99.90;;;;;;5024576;28;20123;-63
2023/02/06 12:59:50;;;;;;;18.70;3.35;;;8.60;99.90;;;;;;5040361;28;20044;-62
2023/02/06 13:02:40;;;;;;;15.55;3.50;;;8.60;99.90;;;;;;5031575;28;20045;-64
2023/02/06 13:05:21;;;;;;;18.77;3.15;;;8.60;99.90;;;;;;5046726;28;20079;-63
2023/02/06 13:07:48;;;;;;;14.50;2.97;;;8.60;99.90;;;;;;5041111;28;20041;-63